sensor_id;sensor_type;location;lat;lon;timestamp;P1;durP1;ratioP1;P2;durP2;ratioP2
51901;SDS011;37929;53.218;6.548;2022-08-21T00:00:03;9.13;;;3.72;;
51901;SDS011;37929;53.218;6.548;2022-08-21T00:02:31;8.30;;;4.35;;
51901;SDS011;37929;53.218;6.548;2022-08-21T00:04:56;8.95;;;4.32;;
51901;SDS011;37929;53.218;6.548;2022-08-21T00:07:22;10.40;;;4.50;;
51901;SDS011;37929;53.218;6.548;2022-08-21T00:09:51;7.40;;;4.35;;
51901;SDS011;37929;53.218;6.548;2022-08-21T00:12:20;8.48;;;4.35;;
51901;SDS011;37929;53.218;6.548;2022-08-21T00:14:46;7.93;;;4.03;;
51901;SDS011;37929;53.218;6.548;2022-08-21T00:17:12;13.48;;;4.88;;
51901;SDS011;37929;53.218;6.548;2022-08-21T00:19:40;8.65;;;4.43;;
51901;SDS011;37929;53.218;6.548;2022-08-21T00:22:06;7.47;;;4.38;;
51901;SDS011;37929;53.218;6.548;2022-08-21T00:24:32;9.20;;;4.53;;
51901;SDS011;37929;53.218;6.548;2022-08-21T00:26:58;9.63;;;4.63;;
51901;SDS011;37929;53.218;6.548;2022-08-21T00:29:24;11.00;;;4.40;;
51901;SDS011;37929;53.218;6.548;2022-08-21T00:31:50;9.82;;;4.85;;
51901;SDS011;37929;53.218;6.548;2022-08-21T00:34:16;7.82;;;4.55;;
51901;SDS011;37929;53.218;6.548;2022-08-21T00:36:42;10.52;;;5.00;;
51901;SDS011;37929;53.218;6.548;2022-08-21T00:39:08;9.52;;;4.53;;
51901;SDS011;37929;53.218;6.548;2022-08-21T00:41:35;8.57;;;4.35;;
51901;SDS011;37929;53.218;6.548;2022-08-21T00:44:04;11.15;;;5.10;;
51901;SDS011;37929;53.218;6.548;2022-08-21T00:46:36;9.10;;;4.70;;
51901;SDS011;37929;53.218;6.548;2022-08-21T00:49:03;10.57;;;4.90;;
51901;SDS011;37929;53.218;6.548;2022-08-21T00:51:51;8.38;;;5.78;;
51901;SDS011;37929;53.218;6.548;2022-08-21T00:54:24;9.98;;;5.50;;
51901;SDS011;37929;53.218;6.548;2022-08-21T00:57:03;9.82;;;4.28;;
51901;SDS011;37929;53.218;6.548;2022-08-21T00:59:36;8.88;;;4.45;;
51901;SDS011;37929;53.218;6.548;2022-08-21T01:02:04;8.75;;;4.63;;
51901;SDS011;37929;53.218;6.548;2022-08-21T01:04:32;8.30;;;4.60;;
51901;SDS011;37929;53.218;6.548;2022-08-21T01:07:01;10.30;;;4.60;;
51901;SDS011;37929;53.218;6.548;2022-08-21T01:09:28;8.48;;;4.50;;
51901;SDS011;37929;53.218;6.548;2022-08-21T01:11:54;8.75;;;5.00;;
51901;SDS011;37929;53.218;6.548;2022-08-21T01:14:20;10.02;;;4.63;;
51901;SDS011;37929;53.218;6.548;2022-08-21T01:16:46;9.05;;;4.97;;
51901;SDS011;37929;53.218;6.548;2022-08-21T01:19:15;9.13;;;4.40;;
51901;SDS011;37929;53.218;6.548;2022-08-21T01:21:43;9.63;;;4.90;;
51901;SDS011;37929;53.218;6.548;2022-08-21T01:24:09;10.23;;;5.18;;
51901;SDS011;37929;53.218;6.548;2022-08-21T01:26:35;9.60;;;4.93;;
51901;SDS011;37929;53.218;6.548;2022-08-21T01:29:04;9.75;;;5.10;;
51901;SDS011;37929;53.218;6.548;2022-08-21T01:31:58;8.57;;;4.85;;
51901;SDS011;37929;53.218;6.548;2022-08-21T01:34:25;10.63;;;5.50;;
51901;SDS011;37929;53.218;6.548;2022-08-21T01:36:51;14.85;;;5.35;;
51901;SDS011;37929;53.218;6.548;2022-08-21T01:39:17;12.63;;;5.97;;
51901;SDS011;37929;53.218;6.548;2022-08-21T01:41:43;12.02;;;5.10;;
51901;SDS011;37929;53.218;6.548;2022-08-21T01:44:09;10.63;;;4.97;;
51901;SDS011;37929;53.218;6.548;2022-08-21T01:46:35;10.38;;;5.07;;
51901;SDS011;37929;53.218;6.548;2022-08-21T01:49:01;10.50;;;5.45;;
51901;SDS011;37929;53.218;6.548;2022-08-21T01:51:27;10.13;;;5.10;;
51901;SDS011;37929;53.218;6.548;2022-08-21T01:53:53;8.20;;;4.90;;
51901;SDS011;37929;53.218;6.548;2022-08-21T01:56:19;10.77;;;5.30;;
51901;SDS011;37929;53.218;6.548;2022-08-21T01:58:45;8.77;;;5.43;;
51901;SDS011;37929;53.218;6.548;2022-08-21T02:01:18;10.23;;;5.00;;
51901;SDS011;37929;53.218;6.548;2022-08-21T02:03:44;8.20;;;5.43;;
51901;SDS011;37929;53.218;6.548;2022-08-21T02:06:14;11.98;;;5.13;;
51901;SDS011;37929;53.218;6.548;2022-08-21T02:08:42;11.15;;;5.30;;
51901;SDS011;37929;53.218;6.548;2022-08-21T02:11:08;10.05;;;5.20;;
51901;SDS011;37929;53.218;6.548;2022-08-21T02:13:34;12.60;;;5.70;;
51901;SDS011;37929;53.218;6.548;2022-08-21T02:16:00;9.55;;;5.40;;
51901;SDS011;37929;53.218;6.548;2022-08-21T02:18:26;10.95;;;5.65;;
51901;SDS011;37929;53.218;6.548;2022-08-21T02:20:51;11.27;;;5.88;;
51901;SDS011;37929;53.218;6.548;2022-08-21T02:23:20;7.60;;;5.13;;
51901;SDS011;37929;53.218;6.548;2022-08-21T02:25:50;16.98;;;6.28;;
51901;SDS011;37929;53.218;6.548;2022-08-21T02:28:16;12.25;;;5.93;;
51901;SDS011;37929;53.218;6.548;2022-08-21T02:30:43;8.23;;;5.57;;
51901;SDS011;37929;53.218;6.548;2022-08-21T02:33:10;12.75;;;6.28;;
51901;SDS011;37929;53.218;6.548;2022-08-21T02:35:38;10.63;;;6.15;;
51901;SDS011;37929;53.218;6.548;2022-08-21T02:38:08;11.73;;;6.38;;
51901;SDS011;37929;53.218;6.548;2022-08-21T02:40:36;9.15;;;5.85;;
51901;SDS011;37929;53.218;6.548;2022-08-21T02:43:04;12.10;;;6.28;;
51901;SDS011;37929;53.218;6.548;2022-08-21T02:45:31;12.73;;;5.88;;
51901;SDS011;37929;53.218;6.548;2022-08-21T02:47:59;10.90;;;6.50;;
51901;SDS011;37929;53.218;6.548;2022-08-21T02:50:28;12.52;;;6.30;;
51901;SDS011;37929;53.218;6.548;2022-08-21T02:52:56;13.45;;;6.07;;
51901;SDS011;37929;53.218;6.548;2022-08-21T02:55:23;12.10;;;6.22;;
51901;SDS011;37929;53.218;6.548;2022-08-21T02:57:51;11.70;;;6.35;;
51901;SDS011;37929;53.218;6.548;2022-08-21T03:00:19;11.48;;;6.30;;
51901;SDS011;37929;53.218;6.548;2022-08-21T03:02:46;12.07;;;6.63;;
51901;SDS011;37929;53.218;6.548;2022-08-21T03:05:13;11.85;;;5.95;;
51901;SDS011;37929;53.218;6.548;2022-08-21T03:07:43;11.02;;;6.50;;
51901;SDS011;37929;53.218;6.548;2022-08-21T03:10:12;11.73;;;6.07;;
51901;SDS011;37929;53.218;6.548;2022-08-21T03:12:39;9.10;;;6.47;;
51901;SDS011;37929;53.218;6.548;2022-08-21T03:15:06;12.50;;;6.57;;
51901;SDS011;37929;53.218;6.548;2022-08-21T03:17:34;10.13;;;6.22;;
51901;SDS011;37929;53.218;6.548;2022-08-21T03:20:00;11.75;;;6.45;;
51901;SDS011;37929;53.218;6.548;2022-08-21T03:22:28;15.38;;;6.15;;
51901;SDS011;37929;53.218;6.548;2022-08-21T03:24:53;11.82;;;6.50;;
51901;SDS011;37929;53.218;6.548;2022-08-21T03:27:25;11.35;;;5.78;;
51901;SDS011;37929;53.218;6.548;2022-08-21T03:29:53;11.27;;;6.70;;
51901;SDS011;37929;53.218;6.548;2022-08-21T03:32:19;12.25;;;6.22;;
51901;SDS011;37929;53.218;6.548;2022-08-21T03:34:46;15.02;;;6.40;;
51901;SDS011;37929;53.218;6.548;2022-08-21T03:37:12;10.80;;;6.20;;
51901;SDS011;37929;53.218;6.548;2022-08-21T03:39:38;10.93;;;6.47;;
51901;SDS011;37929;53.218;6.548;2022-08-21T03:42:05;11.90;;;7.18;;
51901;SDS011;37929;53.218;6.548;2022-08-21T03:44:31;11.98;;;7.00;;
51901;SDS011;37929;53.218;6.548;2022-08-21T03:46:57;7.72;;;5.82;;
51901;SDS011;37929;53.218;6.548;2022-08-21T03:49:24;11.68;;;6.43;;
51901;SDS011;37929;53.218;6.548;2022-08-21T03:51:53;12.55;;;6.40;;
51901;SDS011;37929;53.218;6.548;2022-08-21T03:54:19;12.35;;;6.60;;
51901;SDS011;37929;53.218;6.548;2022-08-21T03:56:45;11.10;;;6.72;;
51901;SDS011;37929;53.218;6.548;2022-08-21T03:59:11;11.65;;;6.72;;
51901;SDS011;37929;53.218;6.548;2022-08-21T04:01:37;12.60;;;6.97;;
51901;SDS011;37929;53.218;6.548;2022-08-21T04:04:04;12.73;;;6.68;;
51901;SDS011;37929;53.218;6.548;2022-08-21T04:06:31;10.45;;;7.13;;
51901;SDS011;37929;53.218;6.548;2022-08-21T04:08:57;11.10;;;7.05;;
51901;SDS011;37929;53.218;6.548;2022-08-21T04:11:23;11.88;;;6.63;;
51901;SDS011;37929;53.218;6.548;2022-08-21T04:13:49;11.85;;;7.07;;
51901;SDS011;37929;53.218;6.548;2022-08-21T04:16:14;9.40;;;6.93;;
51901;SDS011;37929;53.218;6.548;2022-08-21T04:18:40;11.38;;;6.93;;
51901;SDS011;37929;53.218;6.548;2022-08-21T04:21:07;12.88;;;7.32;;
51901;SDS011;37929;53.218;6.548;2022-08-21T04:23:36;13.95;;;6.43;;
51901;SDS011;37929;53.218;6.548;2022-08-21T04:26:02;13.40;;;7.25;;
51901;SDS011;37929;53.218;6.548;2022-08-21T04:28:28;10.02;;;7.13;;
51901;SDS011;37929;53.218;6.548;2022-08-21T04:30:54;11.90;;;7.22;;
51901;SDS011;37929;53.218;6.548;2022-08-21T04:33:21;13.60;;;7.07;;
51901;SDS011;37929;53.218;6.548;2022-08-21T04:35:48;11.50;;;6.78;;
51901;SDS011;37929;53.218;6.548;2022-08-21T04:38:14;12.93;;;6.78;;
51901;SDS011;37929;53.218;6.548;2022-08-21T04:40:42;15.10;;;7.32;;
51901;SDS011;37929;53.218;6.548;2022-08-21T04:43:09;10.88;;;6.70;;
51901;SDS011;37929;53.218;6.548;2022-08-21T04:45:37;13.00;;;6.82;;
51901;SDS011;37929;53.218;6.548;2022-08-21T04:48:05;12.57;;;7.00;;
51901;SDS011;37929;53.218;6.548;2022-08-21T04:53:30;11.52;;;6.82;;
51901;SDS011;37929;53.218;6.548;2022-08-21T04:56:07;13.77;;;6.35;;
51901;SDS011;37929;53.218;6.548;2022-08-21T05:01:07;11.95;;;6.93;;
51901;SDS011;37929;53.218;6.548;2022-08-21T05:03:39;11.82;;;6.95;;
51901;SDS011;37929;53.218;6.548;2022-08-21T05:06:07;10.07;;;6.38;;
51901;SDS011;37929;53.218;6.548;2022-08-21T05:08:35;10.60;;;6.90;;
51901;SDS011;37929;53.218;6.548;2022-08-21T05:11:03;12.25;;;6.82;;
51901;SDS011;37929;53.218;6.548;2022-08-21T05:13:33;11.18;;;6.90;;
51901;SDS011;37929;53.218;6.548;2022-08-21T05:15:59;11.27;;;6.65;;
51901;SDS011;37929;53.218;6.548;2022-08-21T05:18:24;11.65;;;7.05;;
51901;SDS011;37929;53.218;6.548;2022-08-21T05:20:50;12.88;;;7.40;;
51901;SDS011;37929;53.218;6.548;2022-08-21T05:23:16;12.30;;;6.43;;
51901;SDS011;37929;53.218;6.548;2022-08-21T05:25:42;12.60;;;6.78;;
51901;SDS011;37929;53.218;6.548;2022-08-21T05:28:11;12.50;;;7.30;;
51901;SDS011;37929;53.218;6.548;2022-08-21T05:30:37;13.75;;;6.72;;
51901;SDS011;37929;53.218;6.548;2022-08-21T05:33:04;11.05;;;6.45;;
51901;SDS011;37929;53.218;6.548;2022-08-21T05:35:31;12.95;;;6.45;;
51901;SDS011;37929;53.218;6.548;2022-08-21T05:37:57;12.15;;;6.20;;
51901;SDS011;37929;53.218;6.548;2022-08-21T05:40:25;13.05;;;6.53;;
51901;SDS011;37929;53.218;6.548;2022-08-21T05:42:52;13.43;;;6.25;;
51901;SDS011;37929;53.218;6.548;2022-08-21T05:45:19;11.15;;;6.15;;
51901;SDS011;37929;53.218;6.548;2022-08-21T05:47:46;10.98;;;6.00;;
51901;SDS011;37929;53.218;6.548;2022-08-21T05:50:12;11.77;;;6.40;;
51901;SDS011;37929;53.218;6.548;2022-08-21T05:52:37;10.85;;;6.00;;
51901;SDS011;37929;53.218;6.548;2022-08-21T05:55:04;11.02;;;6.57;;
51901;SDS011;37929;53.218;6.548;2022-08-21T05:57:30;11.35;;;6.32;;
51901;SDS011;37929;53.218;6.548;2022-08-21T05:59:55;14.32;;;6.25;;
51901;SDS011;37929;53.218;6.548;2022-08-21T06:02:21;11.40;;;6.38;;
51901;SDS011;37929;53.218;6.548;2022-08-21T06:04:50;12.38;;;6.47;;
51901;SDS011;37929;53.218;6.548;2022-08-21T06:07:21;10.43;;;6.25;;
51901;SDS011;37929;53.218;6.548;2022-08-21T06:09:47;13.38;;;6.15;;
51901;SDS011;37929;53.218;6.548;2022-08-21T06:12:13;14.25;;;6.22;;
51901;SDS011;37929;53.218;6.548;2022-08-21T06:14:39;13.55;;;6.30;;
51901;SDS011;37929;53.218;6.548;2022-08-21T06:17:06;10.82;;;6.38;;
51901;SDS011;37929;53.218;6.548;2022-08-21T06:19:35;11.63;;;6.00;;
51901;SDS011;37929;53.218;6.548;2022-08-21T06:22:01;11.43;;;6.03;;
51901;SDS011;37929;53.218;6.548;2022-08-21T06:24:27;11.90;;;6.25;;
51901;SDS011;37929;53.218;6.548;2022-08-21T06:26:53;13.13;;;6.10;;
51901;SDS011;37929;53.218;6.548;2022-08-21T06:29:20;12.02;;;5.47;;
51901;SDS011;37929;53.218;6.548;2022-08-21T06:31:47;14.77;;;5.78;;
51901;SDS011;37929;53.218;6.548;2022-08-21T06:34:14;10.75;;;5.38;;
51901;SDS011;37929;53.218;6.548;2022-08-21T06:36:41;14.25;;;5.40;;
51901;SDS011;37929;53.218;6.548;2022-08-21T06:39:10;11.50;;;6.15;;
51901;SDS011;37929;53.218;6.548;2022-08-21T06:41:36;12.63;;;6.50;;
51901;SDS011;37929;53.218;6.548;2022-08-21T06:44:05;11.20;;;5.20;;
51901;SDS011;37929;53.218;6.548;2022-08-21T06:46:31;10.45;;;5.13;;
51901;SDS011;37929;53.218;6.548;2022-08-21T06:48:57;10.05;;;4.93;;
51901;SDS011;37929;53.218;6.548;2022-08-21T06:51:23;11.93;;;5.15;;
51901;SDS011;37929;53.218;6.548;2022-08-21T06:53:53;12.60;;;5.55;;
51901;SDS011;37929;53.218;6.548;2022-08-21T06:56:19;11.98;;;4.82;;
51901;SDS011;37929;53.218;6.548;2022-08-21T06:58:46;8.85;;;4.85;;
51901;SDS011;37929;53.218;6.548;2022-08-21T07:01:14;9.88;;;4.65;;
51901;SDS011;37929;53.218;6.548;2022-08-21T07:03:41;11.35;;;4.05;;
51901;SDS011;37929;53.218;6.548;2022-08-21T07:06:08;11.60;;;4.40;;
51901;SDS011;37929;53.218;6.548;2022-08-21T07:08:35;8.57;;;3.85;;
51901;SDS011;37929;53.218;6.548;2022-08-21T07:11:04;9.18;;;3.60;;
51901;SDS011;37929;53.218;6.548;2022-08-21T07:13:35;11.35;;;4.18;;
51901;SDS011;37929;53.218;6.548;2022-08-21T07:16:01;11.10;;;4.07;;
51901;SDS011;37929;53.218;6.548;2022-08-21T07:18:27;8.68;;;3.97;;
51901;SDS011;37929;53.218;6.548;2022-08-21T07:20:53;9.30;;;3.42;;
51901;SDS011;37929;53.218;6.548;2022-08-21T07:23:30;8.75;;;3.50;;
51901;SDS011;37929;53.218;6.548;2022-08-21T07:25:58;7.97;;;3.50;;
51901;SDS011;37929;53.218;6.548;2022-08-21T07:28:27;9.13;;;3.88;;
51901;SDS011;37929;53.218;6.548;2022-08-21T07:30:55;8.38;;;3.38;;
51901;SDS011;37929;53.218;6.548;2022-08-21T07:33:24;9.25;;;3.17;;
51901;SDS011;37929;53.218;6.548;2022-08-21T07:35:51;8.95;;;3.65;;
51901;SDS011;37929;53.218;6.548;2022-08-21T07:38:17;10.68;;;3.22;;
51901;SDS011;37929;53.218;6.548;2022-08-21T07:40:44;9.57;;;3.30;;
51901;SDS011;37929;53.218;6.548;2022-08-21T07:43:11;13.07;;;3.05;;
51901;SDS011;37929;53.218;6.548;2022-08-21T07:45:37;5.55;;;2.80;;
51901;SDS011;37929;53.218;6.548;2022-08-21T07:48:03;10.20;;;3.00;;
51901;SDS011;37929;53.218;6.548;2022-08-21T07:50:29;8.70;;;3.13;;
51901;SDS011;37929;53.218;6.548;2022-08-21T07:52:55;6.55;;;2.83;;
51901;SDS011;37929;53.218;6.548;2022-08-21T07:55:22;8.98;;;2.88;;
51901;SDS011;37929;53.218;6.548;2022-08-21T07:57:48;7.25;;;2.72;;
51901;SDS011;37929;53.218;6.548;2022-08-21T08:00:17;10.52;;;2.78;;
51901;SDS011;37929;53.218;6.548;2022-08-21T08:02:46;8.52;;;2.47;;
51901;SDS011;37929;53.218;6.548;2022-08-21T08:05:15;9.85;;;2.67;;
51901;SDS011;37929;53.218;6.548;2022-08-21T08:07:42;8.20;;;2.75;;
51901;SDS011;37929;53.218;6.548;2022-08-21T08:10:08;6.65;;;2.65;;
51901;SDS011;37929;53.218;6.548;2022-08-21T08:12:36;11.68;;;2.88;;
51901;SDS011;37929;53.218;6.548;2022-08-21T08:15:12;7.25;;;2.78;;
51901;SDS011;37929;53.218;6.548;2022-08-21T08:17:57;10.10;;;2.85;;
51901;SDS011;37929;53.218;6.548;2022-08-21T08:20:24;9.95;;;2.95;;
51901;SDS011;37929;53.218;6.548;2022-08-21T08:22:52;7.10;;;2.67;;
51901;SDS011;37929;53.218;6.548;2022-08-21T08:25:19;9.15;;;3.10;;
51901;SDS011;37929;53.218;6.548;2022-08-21T08:27:47;8.82;;;2.35;;
51901;SDS011;37929;53.218;6.548;2022-08-21T08:30:14;9.85;;;3.30;;
51901;SDS011;37929;53.218;6.548;2022-08-21T08:32:41;10.18;;;3.30;;
51901;SDS011;37929;53.218;6.548;2022-08-21T08:35:07;7.95;;;2.80;;
51901;SDS011;37929;53.218;6.548;2022-08-21T08:37:34;10.82;;;3.05;;
51901;SDS011;37929;53.218;6.548;2022-08-21T08:40:03;11.43;;;3.15;;
51901;SDS011;37929;53.218;6.548;2022-08-21T08:42:33;7.72;;;2.70;;
51901;SDS011;37929;53.218;6.548;2022-08-21T08:45:11;13.55;;;4.28;;
51901;SDS011;37929;53.218;6.548;2022-08-21T08:47:49;8.30;;;3.45;;
51901;SDS011;37929;53.218;6.548;2022-08-21T08:50:29;7.70;;;3.05;;
51901;SDS011;37929;53.218;6.548;2022-08-21T08:53:05;6.22;;;3.35;;
51901;SDS011;37929;53.218;6.548;2022-08-21T08:55:38;11.32;;;3.65;;
51901;SDS011;37929;53.218;6.548;2022-08-21T08:58:06;11.30;;;3.40;;
51901;SDS011;37929;53.218;6.548;2022-08-21T09:00:37;10.40;;;3.70;;
51901;SDS011;37929;53.218;6.548;2022-08-21T09:03:03;12.48;;;3.95;;
51901;SDS011;37929;53.218;6.548;2022-08-21T09:08:15;9.32;;;3.60;;
51901;SDS011;37929;53.218;6.548;2022-08-21T09:10:56;10.82;;;3.50;;
51901;SDS011;37929;53.218;6.548;2022-08-21T09:13:46;11.98;;;3.67;;
51901;SDS011;37929;53.218;6.548;2022-08-21T09:19:32;11.63;;;3.75;;
51901;SDS011;37929;53.218;6.548;2022-08-21T09:24:45;10.93;;;3.13;;
51901;SDS011;37929;53.218;6.548;2022-08-21T09:27:19;10.20;;;3.50;;
51901;SDS011;37929;53.218;6.548;2022-08-21T09:29:48;11.38;;;3.13;;
51901;SDS011;37929;53.218;6.548;2022-08-21T09:32:21;8.85;;;2.97;;
51901;SDS011;37929;53.218;6.548;2022-08-21T09:37:52;10.73;;;3.13;;
51901;SDS011;37929;53.218;6.548;2022-08-21T09:45:40;13.20;;;3.17;;
51901;SDS011;37929;53.218;6.548;2022-08-21T09:48:10;9.50;;;3.30;;
51901;SDS011;37929;53.218;6.548;2022-08-21T09:50:38;8.10;;;2.80;;
51901;SDS011;37929;53.218;6.548;2022-08-21T09:53:13;8.35;;;3.08;;
51901;SDS011;37929;53.218;6.548;2022-08-21T09:55:52;9.07;;;3.03;;
51901;SDS011;37929;53.218;6.548;2022-08-21T09:58:40;7.70;;;2.70;;
51901;SDS011;37929;53.218;6.548;2022-08-21T10:01:13;8.00;;;3.00;;
51901;SDS011;37929;53.218;6.548;2022-08-21T10:03:48;9.95;;;3.17;;
51901;SDS011;37929;53.218;6.548;2022-08-21T10:06:27;9.82;;;2.90;;
51901;SDS011;37929;53.218;6.548;2022-08-21T10:11:59;9.27;;;3.03;;
51901;SDS011;37929;53.218;6.548;2022-08-21T10:20:45;9.30;;;3.03;;
51901;SDS011;37929;53.218;6.548;2022-08-21T10:40:20;8.25;;;2.83;;
51901;SDS011;37929;53.218;6.548;2022-08-21T10:46:00;7.68;;;2.83;;
51901;SDS011;37929;53.218;6.548;2022-08-21T10:49:08;6.88;;;2.78;;
51901;SDS011;37929;53.218;6.548;2022-08-21T11:00:04;10.90;;;3.22;;
51901;SDS011;37929;53.218;6.548;2022-08-21T11:02:39;9.50;;;3.30;;
51901;SDS011;37929;53.218;6.548;2022-08-21T11:05:08;9.95;;;3.05;;
51901;SDS011;37929;53.218;6.548;2022-08-21T11:07:55;11.60;;;3.20;;
51901;SDS011;37929;53.218;6.548;2022-08-21T11:10:42;8.13;;;3.20;;
51901;SDS011;37929;53.218;6.548;2022-08-21T11:27:28;9.57;;;3.13;;
51901;SDS011;37929;53.218;6.548;2022-08-21T11:29:59;8.32;;;2.50;;
51901;SDS011;37929;53.218;6.548;2022-08-21T11:38:01;8.98;;;3.05;;
51901;SDS011;37929;53.218;6.548;2022-08-21T11:41:02;6.93;;;2.75;;
51901;SDS011;37929;53.218;6.548;2022-08-21T11:43:38;7.50;;;2.70;;
51901;SDS011;37929;53.218;6.548;2022-08-21T11:51:42;9.02;;;3.00;;
51901;SDS011;37929;53.218;6.548;2022-08-21T11:57:17;9.35;;;2.92;;
51901;SDS011;37929;53.218;6.548;2022-08-21T12:00:07;13.25;;;3.17;;
51901;SDS011;37929;53.218;6.548;2022-08-21T12:02:48;9.60;;;2.83;;
51901;SDS011;37929;53.218;6.548;2022-08-21T12:05:39;8.18;;;2.55;;
51901;SDS011;37929;53.218;6.548;2022-08-21T12:08:28;7.07;;;2.60;;
51901;SDS011;37929;53.218;6.548;2022-08-21T12:11:06;7.88;;;2.40;;
51901;SDS011;37929;53.218;6.548;2022-08-21T12:13:38;7.28;;;2.55;;
51901;SDS011;37929;53.218;6.548;2022-08-21T12:18:39;7.68;;;2.88;;
51901;SDS011;37929;53.218;6.548;2022-08-21T12:21:22;7.18;;;2.85;;
51901;SDS011;37929;53.218;6.548;2022-08-21T12:24:01;10.05;;;2.58;;
51901;SDS011;37929;53.218;6.548;2022-08-21T12:26:34;7.68;;;2.80;;
51901;SDS011;37929;53.218;6.548;2022-08-21T12:34:22;9.93;;;2.47;;
51901;SDS011;37929;53.218;6.548;2022-08-21T12:36:57;5.72;;;2.50;;
51901;SDS011;37929;53.218;6.548;2022-08-21T12:39:44;6.80;;;2.92;;
51901;SDS011;37929;53.218;6.548;2022-08-21T12:44:53;9.32;;;2.47;;
51901;SDS011;37929;53.218;6.548;2022-08-21T12:52:29;9.20;;;2.97;;
51901;SDS011;37929;53.218;6.548;2022-08-21T12:54:58;4.32;;;2.17;;
51901;SDS011;37929;53.218;6.548;2022-08-21T12:57:25;6.03;;;2.40;;
51901;SDS011;37929;53.218;6.548;2022-08-21T12:59:57;9.00;;;2.40;;
51901;SDS011;37929;53.218;6.548;2022-08-21T13:02:26;7.65;;;2.40;;
51901;SDS011;37929;53.218;6.548;2022-08-21T13:04:58;7.45;;;2.20;;
51901;SDS011;37929;53.218;6.548;2022-08-21T13:10:05;6.28;;;2.00;;
51901;SDS011;37929;53.218;6.548;2022-08-21T13:12:40;4.90;;;2.20;;
51901;SDS011;37929;53.218;6.548;2022-08-21T13:15:07;5.32;;;2.03;;
51901;SDS011;37929;53.218;6.548;2022-08-21T13:17:35;6.85;;;2.20;;
51901;SDS011;37929;53.218;6.548;2022-08-21T13:20:07;3.55;;;1.80;;
51901;SDS011;37929;53.218;6.548;2022-08-21T13:22:42;5.85;;;2.17;;
51901;SDS011;37929;53.218;6.548;2022-08-21T13:25:21;6.55;;;2.20;;
51901;SDS011;37929;53.218;6.548;2022-08-21T13:27:57;6.45;;;2.22;;
51901;SDS011;37929;53.218;6.548;2022-08-21T13:30:26;7.93;;;2.22;;
51901;SDS011;37929;53.218;6.548;2022-08-21T13:32:55;8.55;;;2.40;;
51901;SDS011;37929;53.218;6.548;2022-08-21T13:35:28;6.72;;;2.20;;
51901;SDS011;37929;53.218;6.548;2022-08-21T13:38:01;6.10;;;2.22;;
51901;SDS011;37929;53.218;6.548;2022-08-21T13:40:31;7.07;;;2.30;;
51901;SDS011;37929;53.218;6.548;2022-08-21T13:43:09;7.20;;;2.10;;
51901;SDS011;37929;53.218;6.548;2022-08-21T13:45:38;6.97;;;2.30;;
51901;SDS011;37929;53.218;6.548;2022-08-21T13:48:04;7.68;;;2.38;;
51901;SDS011;37929;53.218;6.548;2022-08-21T13:50:45;7.57;;;2.40;;
51901;SDS011;37929;53.218;6.548;2022-08-21T13:53:19;7.03;;;2.45;;
51901;SDS011;37929;53.218;6.548;2022-08-21T13:56:03;5.93;;;1.83;;
51901;SDS011;37929;53.218;6.548;2022-08-21T13:58:32;5.35;;;1.83;;
51901;SDS011;37929;53.218;6.548;2022-08-21T14:03:47;4.88;;;2.08;;
51901;SDS011;37929;53.218;6.548;2022-08-21T14:06:25;7.35;;;2.22;;
51901;SDS011;37929;53.218;6.548;2022-08-21T14:08:56;7.18;;;2.00;;
51901;SDS011;37929;53.218;6.548;2022-08-21T14:11:26;5.53;;;2.10;;
51901;SDS011;37929;53.218;6.548;2022-08-21T14:14:00;5.90;;;2.00;;
51901;SDS011;37929;53.218;6.548;2022-08-21T14:16:40;4.07;;;1.90;;
51901;SDS011;37929;53.218;6.548;2022-08-21T14:19:36;7.50;;;1.90;;
51901;SDS011;37929;53.218;6.548;2022-08-21T14:25:05;4.93;;;1.92;;
51901;SDS011;37929;53.218;6.548;2022-08-21T14:27:35;7.75;;;2.13;;
51901;SDS011;37929;53.218;6.548;2022-08-21T14:30:48;6.38;;;2.47;;
51901;SDS011;37929;53.218;6.548;2022-08-21T14:32:57;5.18;;;1.70;;
51901;SDS011;37929;53.218;6.548;2022-08-21T14:35:24;4.88;;;2.10;;
51901;SDS011;37929;53.218;6.548;2022-08-21T14:37:51;8.05;;;2.10;;
51901;SDS011;37929;53.218;6.548;2022-08-21T14:40:20;4.93;;;2.08;;
51901;SDS011;37929;53.218;6.548;2022-08-21T14:42:48;6.95;;;2.55;;
51901;SDS011;37929;53.218;6.548;2022-08-21T14:47:41;6.38;;;2.00;;
51901;SDS011;37929;53.218;6.548;2022-08-21T14:50:08;6.88;;;2.50;;
51901;SDS011;37929;53.218;6.548;2022-08-21T14:52:37;5.50;;;1.90;;
51901;SDS011;37929;53.218;6.548;2022-08-21T14:55:05;6.70;;;2.40;;
51901;SDS011;37929;53.218;6.548;2022-08-21T14:57:38;5.63;;;1.85;;
51901;SDS011;37929;53.218;6.548;2022-08-21T15:00:09;4.95;;;2.00;;
51901;SDS011;37929;53.218;6.548;2022-08-21T15:02:39;5.68;;;1.85;;
51901;SDS011;37929;53.218;6.548;2022-08-21T15:05:05;6.28;;;2.22;;
51901;SDS011;37929;53.218;6.548;2022-08-21T15:07:35;5.43;;;2.10;;
51901;SDS011;37929;53.218;6.548;2022-08-21T15:13:27;5.15;;;1.95;;
51901;SDS011;37929;53.218;6.548;2022-08-21T15:15:54;5.60;;;1.73;;
51901;SDS011;37929;53.218;6.548;2022-08-21T15:18:22;5.22;;;1.92;;
51901;SDS011;37929;53.218;6.548;2022-08-21T15:20:50;4.55;;;1.90;;
51901;SDS011;37929;53.218;6.548;2022-08-21T15:23:19;6.63;;;2.25;;
51901;SDS011;37929;53.218;6.548;2022-08-21T15:25:46;6.30;;;1.80;;
51901;SDS011;37929;53.218;6.548;2022-08-21T15:28:16;7.70;;;2.20;;
51901;SDS011;37929;53.218;6.548;2022-08-21T15:30:43;6.03;;;2.00;;
51901;SDS011;37929;53.218;6.548;2022-08-21T15:33:35;3.95;;;1.73;;
51901;SDS011;37929;53.218;6.548;2022-08-21T15:36:01;8.02;;;2.20;;
51901;SDS011;37929;53.218;6.548;2022-08-21T15:38:50;6.75;;;2.20;;
51901;SDS011;37929;53.218;6.548;2022-08-21T15:41:36;6.38;;;1.83;;
51901;SDS011;37929;53.218;6.548;2022-08-21T15:44:02;6.25;;;2.20;;
51901;SDS011;37929;53.218;6.548;2022-08-21T15:46:33;6.38;;;2.20;;
51901;SDS011;37929;53.218;6.548;2022-08-21T15:48:59;7.95;;;2.17;;
51901;SDS011;37929;53.218;6.548;2022-08-21T15:51:25;7.32;;;2.33;;
51901;SDS011;37929;53.218;6.548;2022-08-21T15:53:51;7.18;;;2.20;;
51901;SDS011;37929;53.218;6.548;2022-08-21T15:56:20;6.00;;;2.45;;
51901;SDS011;37929;53.218;6.548;2022-08-21T15:58:53;7.38;;;2.15;;
51901;SDS011;37929;53.218;6.548;2022-08-21T16:01:25;6.78;;;2.13;;
51901;SDS011;37929;53.218;6.548;2022-08-21T16:03:53;6.07;;;1.98;;
51901;SDS011;37929;53.218;6.548;2022-08-21T16:06:20;5.90;;;2.13;;
51901;SDS011;37929;53.218;6.548;2022-08-21T16:08:46;7.20;;;2.20;;
51901;SDS011;37929;53.218;6.548;2022-08-21T16:11:15;8.77;;;2.30;;
51901;SDS011;37929;53.218;6.548;2022-08-21T16:13:44;6.63;;;2.40;;
51901;SDS011;37929;53.218;6.548;2022-08-21T16:16:16;6.65;;;2.40;;
51901;SDS011;37929;53.218;6.548;2022-08-21T16:18:44;8.45;;;2.67;;
51901;SDS011;37929;53.218;6.548;2022-08-21T16:21:10;6.32;;;2.05;;
51901;SDS011;37929;53.218;6.548;2022-08-21T16:23:36;10.40;;;2.30;;
51901;SDS011;37929;53.218;6.548;2022-08-21T16:26:03;7.88;;;2.38;;
51901;SDS011;37929;53.218;6.548;2022-08-21T16:28:30;5.50;;;2.22;;
51901;SDS011;37929;53.218;6.548;2022-08-21T16:30:58;6.25;;;2.17;;
51901;SDS011;37929;53.218;6.548;2022-08-21T16:33:27;5.88;;;2.05;;
51901;SDS011;37929;53.218;6.548;2022-08-21T16:35:59;7.75;;;2.72;;
51901;SDS011;37929;53.218;6.548;2022-08-21T16:38:26;7.25;;;2.35;;
51901;SDS011;37929;53.218;6.548;2022-08-21T16:40:57;8.95;;;2.40;;
51901;SDS011;37929;53.218;6.548;2022-08-21T16:43:26;3.55;;;2.05;;
51901;SDS011;37929;53.218;6.548;2022-08-21T16:45:54;7.38;;;2.20;;
51901;SDS011;37929;53.218;6.548;2022-08-21T16:48:21;6.43;;;2.13;;
51901;SDS011;37929;53.218;6.548;2022-08-21T16:50:47;6.07;;;2.10;;
51901;SDS011;37929;53.218;6.548;2022-08-21T16:53:13;6.30;;;2.30;;